createdAt,value
2017-12-14T00:00:03.053Z,3.78
2017-12-14T00:00:07.199Z,3.74
2017-12-14T00:00:11.543Z,3.74
2017-12-14T00:00:15.797Z,3.81
2017-12-14T00:00:19.718Z,3.75
2017-12-14T00:00:23.738Z,3.84
2017-12-14T00:00:28.081Z,3.7
2017-12-14T00:00:32.211Z,3.7
2017-12-14T00:00:36.445Z,3.8
2017-12-14T00:00:40.476Z,3.8
2017-12-14T00:00:44.707Z,3.75
2017-12-14T00:00:49.056Z,3.74
2017-12-14T00:00:53.313Z,3.86
2017-12-14T00:00:57.442Z,3.77
2017-12-14T00:01:01.582Z,3.78
2017-12-14T00:01:05.738Z,3.75
2017-12-14T00:01:10.098Z,3.82
2017-12-14T00:01:14.017Z,3.75
2017-12-14T00:01:18.371Z,3.77
2017-12-14T00:01:22.526Z,3.74
2017-12-14T00:01:26.765Z,3.78
2017-12-14T00:01:30.795Z,3.74
2017-12-14T00:01:34.924Z,3.75
2017-12-14T00:01:38.958Z,3.75
2017-12-14T00:01:42.982Z,3.74
2017-12-14T00:01:47.238Z,3.74
2017-12-14T00:01:51.268Z,3.86
2017-12-14T00:01:55.097Z,3.81
2017-12-14T00:01:59.227Z,3.74
2017-12-14T00:02:03.465Z,3.82
2017-12-14T00:02:07.502Z,3.71
2017-12-14T00:02:11.532Z,3.77
2017-12-14T00:02:15.790Z,3.74
2017-12-14T00:02:19.931Z,3.78
2017-12-14T00:02:24.269Z,3.77
2017-12-14T00:02:28.507Z,3.64
2017-12-14T00:02:32.748Z,3.89
2017-12-14T00:02:37.000Z,3.8
2017-12-14T00:02:41.241Z,3.78
2017-12-14T00:02:45.580Z,3.78
2017-12-14T00:02:49.924Z,3.78
2017-12-14T00:02:54.063Z,3.75
2017-12-14T00:02:58.311Z,3.75
2017-12-14T00:03:02.544Z,3.78
2017-12-14T00:03:06.771Z,3.75
2017-12-14T00:03:11.015Z,3.72
2017-12-14T00:03:15.046Z,3.74
2017-12-14T00:03:19.088Z,3.84
2017-12-14T00:03:23.577Z,3.75
2017-12-14T00:03:27.881Z,3.74
2017-12-14T00:03:32.118Z,3.74
2017-12-14T00:03:36.149Z,3.72
2017-12-14T00:03:40.479Z,3.75
2017-12-14T00:03:44.732Z,3.68
2017-12-14T00:03:48.988Z,3.84
2017-12-14T00:03:53.216Z,3.78
2017-12-14T00:03:57.253Z,3.7
2017-12-14T00:04:01.396Z,3.77
2017-12-14T00:04:05.638Z,3.78
2017-12-14T00:04:09.888Z,3.71
2017-12-14T00:04:14.132Z,3.78
2017-12-14T00:04:18.389Z,3.7
2017-12-14T00:04:22.638Z,3.71
2017-12-14T00:04:26.758Z,3.78
2017-12-14T00:04:31.008Z,3.71
2017-12-14T00:04:35.254Z,3.78
2017-12-14T00:04:39.295Z,3.8
2017-12-14T00:04:43.540Z,3.7
2017-12-14T00:04:47.668Z,3.75
2017-12-14T00:04:51.914Z,3.78
2017-12-14T00:04:56.043Z,3.71
2017-12-14T00:05:00.180Z,3.72
2017-12-14T00:05:04.476Z,3.8
2017-12-14T00:05:08.607Z,3.77
2017-12-14T00:05:12.837Z,3.7
2017-12-14T00:05:17.077Z,3.75
2017-12-14T00:05:21.411Z,3.8
2017-12-14T00:05:25.564Z,3.77
2017-12-14T00:05:29.694Z,3.77
2017-12-14T00:05:33.874Z,3.8
2017-12-14T00:05:38.118Z,3.7
2017-12-14T00:05:42.248Z,3.74
2017-12-14T00:05:46.612Z,3.64
2017-12-14T00:05:50.762Z,3.7
2017-12-14T00:05:55.109Z,3.68
2017-12-14T00:05:59.262Z,3.78
2017-12-14T00:06:03.417Z,3.67
2017-12-14T00:06:07.334Z,3.75
2017-12-14T00:06:11.358Z,3.75
2017-12-14T00:06:15.589Z,3.67
2017-12-14T00:06:19.827Z,3.7
2017-12-14T00:06:24.066Z,3.78
2017-12-14T00:06:28.292Z,3.72
2017-12-14T00:06:32.213Z,3.67
2017-12-14T00:06:36.463Z,3.74
2017-12-14T00:06:40.603Z,3.72
2017-12-14T00:06:44.735Z,3.72
2017-12-14T00:06:48.848Z,3.74
2017-12-14T00:06:52.995Z,3.71
2017-12-14T00:06:57.009Z,3.67
2017-12-14T00:07:01.128Z,3.77
2017-12-14T00:07:05.517Z,3.71
2017-12-14T00:07:09.551Z,3.68
2017-12-14T00:07:13.685Z,3.64
2017-12-14T00:07:18.033Z,3.68
2017-12-14T00:07:22.164Z,3.63
2017-12-14T00:07:26.412Z,3.7
2017-12-14T00:07:30.448Z,3.74
2017-12-14T00:07:34.588Z,3.64
2017-12-14T00:07:38.925Z,3.67
2017-12-14T00:07:43.183Z,3.68
2017-12-14T00:07:47.427Z,3.7
2017-12-14T00:07:51.675Z,3.68
2017-12-14T00:07:55.604Z,3.64
2017-12-14T00:07:59.651Z,3.68
2017-12-14T00:08:03.574Z,3.68
2017-12-14T00:08:07.714Z,3.74
2017-12-14T00:08:11.859Z,3.64
2017-12-14T00:08:15.897Z,3.68
2017-12-14T00:08:20.029Z,3.68
2017-12-14T00:08:24.382Z,3.68
2017-12-14T00:08:28.743Z,3.71
2017-12-14T00:08:32.873Z,3.67
2017-12-14T00:08:36.918Z,3.7
2017-12-14T00:08:41.172Z,3.7
2017-12-14T00:08:45.319Z,3.63
2017-12-14T00:08:49.458Z,3.68
2017-12-14T00:08:53.797Z,3.6
2017-12-14T00:08:58.146Z,3.64
2017-12-14T00:09:02.540Z,3.64
2017-12-14T00:09:06.887Z,3.68
2017-12-14T00:09:11.024Z,3.64
2017-12-14T00:09:15.157Z,3.71
2017-12-14T00:09:19.403Z,3.72
2017-12-14T00:09:23.633Z,3.67
2017-12-14T00:09:27.671Z,3.71
2017-12-14T00:09:31.922Z,3.7
2017-12-14T00:09:36.271Z,3.67
2017-12-14T00:09:40.414Z,3.67
2017-12-14T00:09:44.666Z,3.7
2017-12-14T00:09:49.007Z,3.74
2017-12-14T00:09:53.365Z,3.75
2017-12-14T00:09:57.597Z,3.7
2017-12-14T00:10:01.629Z,3.72
2017-12-14T00:10:05.993Z,3.62
2017-12-14T00:10:10.342Z,3.64
2017-12-14T00:10:14.371Z,3.67
2017-12-14T00:10:18.501Z,3.68
2017-12-14T00:10:22.864Z,3.68
2017-12-14T00:10:27.100Z,3.59
2017-12-14T00:10:31.242Z,3.63
2017-12-14T00:10:35.477Z,3.59
2017-12-14T00:10:39.725Z,3.7
2017-12-14T00:10:44.073Z,3.62
2017-12-14T00:10:48.207Z,3.54
2017-12-14T00:10:52.343Z,3.62
2017-12-14T00:10:56.475Z,3.6
2017-12-14T00:11:00.723Z,3.6
2017-12-14T00:11:04.977Z,3.6
2017-12-14T00:11:09.118Z,3.67
2017-12-14T00:11:13.350Z,3.57
2017-12-14T00:11:17.694Z,3.64
2017-12-14T00:11:21.996Z,3.57
2017-12-14T00:11:26.133Z,3.63
2017-12-14T00:11:30.365Z,3.62
2017-12-14T00:11:34.517Z,3.57
2017-12-14T00:11:38.542Z,3.62
2017-12-14T00:11:42.569Z,3.6
2017-12-14T00:11:46.616Z,3.59
2017-12-14T00:11:50.749Z,3.59
2017-12-14T00:11:54.737Z,3.63
2017-12-14T00:11:59.090Z,3.59
2017-12-14T00:12:03.340Z,3.56
2017-12-14T00:12:07.608Z,3.57
2017-12-14T00:12:11.536Z,3.54
2017-12-14T00:12:15.767Z,3.6
2017-12-14T00:12:19.806Z,3.54
2017-12-14T00:12:24.043Z,3.63
2017-12-14T00:12:28.175Z,3.53
2017-12-14T00:12:32.314Z,3.64
2017-12-14T00:12:36.451Z,3.54
2017-12-14T00:12:40.589Z,3.56
2017-12-14T00:12:44.817Z,3.56
2017-12-14T00:12:49.166Z,3.57
2017-12-14T00:12:53.307Z,3.63
2017-12-14T00:12:57.565Z,3.5
2017-12-14T00:13:01.785Z,3.54
2017-12-14T00:13:05.610Z,3.6
2017-12-14T00:13:09.851Z,3.52
2017-12-14T00:13:14.209Z,3.52
2017-12-14T00:13:18.343Z,3.45
2017-12-14T00:13:22.572Z,3.53
2017-12-14T00:13:26.702Z,3.53
2017-12-14T00:13:30.939Z,3.54
2017-12-14T00:13:35.197Z,3.5
2017-12-14T00:13:39.571Z,3.49
2017-12-14T00:13:43.813Z,3.57
2017-12-14T00:13:48.177Z,3.57
2017-12-14T00:13:52.407Z,3.49
2017-12-14T00:13:56.711Z,3.57
2017-12-14T00:14:00.958Z,3.52
2017-12-14T00:14:05.203Z,3.57
2017-12-14T00:14:09.336Z,3.53
2017-12-14T00:14:13.493Z,3.52
2017-12-14T00:14:17.616Z,3.46
2017-12-14T00:14:21.860Z,3.57
2017-12-14T00:14:26.163Z,3.44
2017-12-14T00:14:30.294Z,3.59
2017-12-14T00:14:34.661Z,3.59
2017-12-14T00:14:39.017Z,3.5
2017-12-14T00:14:43.214Z,3.5
2017-12-14T00:14:47.561Z,3.46
2017-12-14T00:14:51.697Z,3.42
2017-12-14T00:14:55.920Z,3.53
2017-12-14T00:15:00.053Z,3.53
2017-12-14T00:15:04.289Z,3.45
2017-12-14T00:15:08.213Z,3.56
2017-12-14T00:15:12.450Z,3.5
2017-12-14T00:15:16.480Z,3.44
2017-12-14T00:15:20.613Z,3.45
2017-12-14T00:15:24.753Z,3.49
2017-12-14T00:15:28.880Z,3.5
2017-12-14T00:15:33.131Z,3.52
2017-12-14T00:15:37.375Z,3.53
2017-12-14T00:15:41.727Z,3.54
2017-12-14T00:15:45.973Z,3.5
2017-12-14T00:15:50.101Z,3.41
2017-12-14T00:15:54.241Z,3.49
2017-12-14T00:15:58.501Z,3.5
2017-12-14T00:16:02.641Z,3.45
2017-12-14T00:16:06.454Z,3.45
2017-12-14T00:16:10.366Z,3.45
2017-12-14T00:16:14.607Z,3.49
2017-12-14T00:16:18.646Z,3.49
2017-12-14T00:16:22.782Z,3.53
2017-12-14T00:16:26.970Z,3.54
2017-12-14T00:16:31.195Z,3.46
2017-12-14T00:16:35.546Z,3.42
2017-12-14T00:16:39.680Z,3.49
2017-12-14T00:16:43.723Z,3.56
2017-12-14T00:16:47.969Z,3.49
2017-12-14T00:16:52.193Z,3.53
2017-12-14T00:16:56.339Z,3.5
2017-12-14T00:17:00.585Z,3.49
2017-12-14T00:17:04.913Z,3.46
2017-12-14T00:17:09.158Z,3.5
2017-12-14T00:17:13.410Z,3.49
2017-12-14T00:17:17.552Z,3.49
2017-12-14T00:17:21.489Z,3.49
2017-12-14T00:17:25.719Z,3.44
2017-12-14T00:17:29.746Z,3.49
2017-12-14T00:17:34.091Z,3.46
2017-12-14T00:17:37.896Z,3.46
2017-12-14T00:17:42.154Z,3.5
2017-12-14T00:17:46.305Z,3.46
2017-12-14T00:17:50.441Z,3.49
2017-12-14T00:17:54.676Z,3.45
2017-12-14T00:17:58.846Z,3.49
2017-12-14T00:18:03.202Z,3.42
2017-12-14T00:18:07.232Z,3.45
2017-12-14T00:18:11.271Z,3.45
2017-12-14T00:18:15.299Z,3.5
2017-12-14T00:18:19.433Z,3.42
2017-12-14T00:18:23.463Z,3.42
2017-12-14T00:18:27.824Z,3.49
2017-12-14T00:18:31.740Z,3.42
2017-12-14T00:18:36.097Z,3.45
2017-12-14T00:18:40.445Z,3.45
2017-12-14T00:18:44.497Z,3.5
2017-12-14T00:18:48.766Z,3.45
2017-12-14T00:18:53.011Z,3.44
2017-12-14T00:18:57.252Z,3.42
2017-12-14T00:19:01.266Z,3.49
2017-12-14T00:19:05.410Z,3.42
2017-12-14T00:19:09.757Z,3.42
2017-12-14T00:19:13.779Z,3.41
2017-12-14T00:19:17.809Z,3.39
2017-12-14T00:19:21.946Z,3.39
2017-12-14T00:19:26.085Z,3.42
2017-12-14T00:19:30.442Z,3.42
2017-12-14T00:19:34.676Z,3.35
2017-12-14T00:19:38.710Z,3.44
2017-12-14T00:19:42.943Z,3.44
2017-12-14T00:19:47.185Z,3.42
2017-12-14T00:19:51.410Z,3.39
2017-12-14T00:19:55.671Z,3.41
2017-12-14T00:19:59.720Z,3.33
2017-12-14T00:20:04.080Z,3.39
2017-12-14T00:20:08.332Z,3.42
2017-12-14T00:20:12.564Z,3.42
2017-12-14T00:20:16.795Z,3.42
2017-12-14T00:20:20.928Z,3.42
2017-12-14T00:20:25.275Z,3.25
2017-12-14T00:20:29.302Z,3.37
2017-12-14T00:20:33.544Z,3.39
2017-12-14T00:20:37.890Z,3.28
2017-12-14T00:20:41.937Z,3.35
2017-12-14T00:20:46.064Z,3.34
2017-12-14T00:20:50.097Z,3.25
2017-12-14T00:20:54.458Z,3.33
2017-12-14T00:20:58.584Z,3.25
2017-12-14T00:21:03.045Z,3.26
2017-12-14T00:21:07.274Z,3.28
2017-12-14T00:21:11.443Z,3.26
2017-12-14T00:21:15.583Z,3.33
2017-12-14T00:21:19.811Z,3.3
2017-12-14T00:21:24.047Z,3.28
2017-12-14T00:21:28.087Z,3.28
2017-12-14T00:21:32.349Z,3.33
2017-12-14T00:21:36.584Z,3.25
2017-12-14T00:21:40.735Z,3.23
2017-12-14T00:21:44.985Z,3.3
2017-12-14T00:21:49.223Z,3.33
2017-12-14T00:21:53.478Z,3.26
2017-12-14T00:21:57.516Z,3.3
2017-12-14T00:22:01.918Z,3.25
2017-12-14T00:22:06.044Z,3.28
2017-12-14T00:22:10.405Z,3.33
2017-12-14T00:22:14.760Z,3.23
2017-12-14T00:22:18.803Z,3.25
2017-12-14T00:22:22.947Z,3.23
2017-12-14T00:22:27.304Z,3.23
2017-12-14T00:22:31.550Z,3.23
2017-12-14T00:22:35.793Z,3.23
2017-12-14T00:22:40.043Z,3.2
2017-12-14T00:22:44.176Z,3.22
2017-12-14T00:22:48.586Z,3.25
2017-12-14T00:22:52.831Z,3.19
2017-12-14T00:22:57.066Z,3.3
2017-12-14T00:23:01.304Z,3.25
2017-12-14T00:23:05.431Z,3.26
2017-12-14T00:23:09.785Z,3.2
2017-12-14T00:23:13.921Z,3.26
2017-12-14T00:23:18.157Z,3.15
2017-12-14T00:23:22.205Z,3.3
2017-12-14T00:23:26.450Z,3.19
2017-12-14T00:23:30.474Z,3.26
2017-12-14T00:23:34.721Z,3.17
2017-12-14T00:23:38.863Z,3.23
2017-12-14T00:23:43.013Z,3.22
2017-12-14T00:23:47.048Z,3.2
2017-12-14T00:23:51.397Z,3.19
2017-12-14T00:23:55.653Z,3.23
2017-12-14T00:23:59.684Z,3.22
2017-12-14T00:24:04.128Z,3.25
2017-12-14T00:24:08.261Z,3.23
2017-12-14T00:24:12.388Z,3.2
2017-12-14T00:24:16.403Z,3.26
2017-12-14T00:24:20.763Z,3.23
2017-12-14T00:24:24.882Z,3.2
2017-12-14T00:24:29.019Z,3.19
2017-12-14T00:24:33.260Z,3.31
2017-12-14T00:24:37.502Z,3.17
2017-12-14T00:24:41.746Z,3.19
2017-12-14T00:24:45.577Z,3.17
2017-12-14T00:24:49.712Z,3.19
2017-12-14T00:24:53.962Z,3.28
2017-12-14T00:24:58.106Z,3.2
2017-12-14T00:25:02.468Z,3.16
2017-12-14T00:25:06.710Z,3.25
2017-12-14T00:25:10.957Z,3.2
2017-12-14T00:25:14.999Z,3.26
2017-12-14T00:25:19.139Z,3.2
2017-12-14T00:25:23.399Z,3.25
2017-12-14T00:25:27.645Z,3.19
2017-12-14T00:25:31.875Z,3.23
2017-12-14T00:25:36.010Z,3.23
2017-12-14T00:25:40.430Z,3.17
2017-12-14T00:25:44.684Z,3.16
2017-12-14T00:25:48.929Z,3.2
2017-12-14T00:25:53.273Z,3.26
2017-12-14T00:25:57.513Z,3.22
2017-12-14T00:26:01.668Z,3.17
2017-12-14T00:26:06.164Z,3.2
2017-12-14T00:26:10.302Z,3.17
2017-12-14T00:26:14.542Z,3.22
2017-12-14T00:26:18.790Z,3.16
2017-12-14T00:26:22.829Z,3.19
2017-12-14T00:26:27.059Z,3.17
2017-12-14T00:26:31.308Z,3.28
2017-12-14T00:26:35.549Z,3.19
2017-12-14T00:26:39.679Z,3.25
2017-12-14T00:26:43.605Z,3.15
2017-12-14T00:26:47.842Z,3.25
2017-12-14T00:26:51.973Z,3.13
2017-12-14T00:26:56.217Z,3.15
2017-12-14T00:27:00.472Z,3.19
2017-12-14T00:27:04.500Z,3.23
2017-12-14T00:27:08.634Z,3.2
2017-12-14T00:27:12.570Z,3.2
2017-12-14T00:27:16.703Z,3.23
2017-12-14T00:27:20.730Z,3.23
2017-12-14T00:27:24.748Z,3.26
2017-12-14T00:27:28.675Z,3.23
2017-12-14T00:27:32.932Z,3.2
2017-12-14T00:27:37.060Z,3.15
2017-12-14T00:27:41.421Z,3.2
2017-12-14T00:27:45.674Z,3.16
2017-12-14T00:27:49.820Z,3.19
2017-12-14T00:27:54.175Z,3.17
2017-12-14T00:27:58.417Z,3.1
2017-12-14T00:28:02.553Z,3.2
2017-12-14T00:28:06.699Z,3.19
2017-12-14T00:28:10.841Z,3.19
2017-12-14T00:28:15.103Z,3.19
2017-12-14T00:28:19.486Z,3.15
2017-12-14T00:28:23.409Z,3.15
2017-12-14T00:28:27.543Z,3.17
2017-12-14T00:28:31.783Z,3.13
2017-12-14T00:28:36.028Z,3.22
2017-12-14T00:28:40.166Z,3.19
2017-12-14T00:28:44.312Z,3.16
2017-12-14T00:28:48.450Z,3.12
2017-12-14T00:28:52.513Z,3.13
2017-12-14T00:28:56.840Z,3.16
2017-12-14T00:29:01.081Z,3.2
2017-12-14T00:29:05.487Z,3.2
2017-12-14T00:29:09.629Z,3.23
2017-12-14T00:29:13.752Z,3.16
2017-12-14T00:29:18.004Z,3.19
2017-12-14T00:29:22.147Z,3.19
2017-12-14T00:29:26.171Z,3.19
2017-12-14T00:29:30.528Z,3.17
2017-12-14T00:29:34.861Z,3.2
2017-12-14T00:29:38.896Z,3.17
2017-12-14T00:29:42.823Z,3.17
2017-12-14T00:29:47.183Z,3.23
2017-12-14T00:29:51.428Z,3.16
2017-12-14T00:29:55.781Z,3.17
2017-12-14T00:30:00.131Z,3.12
2017-12-14T00:30:04.308Z,3.2
2017-12-14T00:30:08.663Z,3.2
2017-12-14T00:30:13.008Z,3.17
2017-12-14T00:30:17.130Z,3.16
2017-12-14T00:30:21.148Z,3.2
2017-12-14T00:30:25.169Z,3.17
2017-12-14T00:30:29.316Z,3.15
2017-12-14T00:30:33.554Z,3.22
2017-12-14T00:30:37.712Z,3.17
2017-12-14T00:30:41.857Z,3.17
2017-12-14T00:30:46.099Z,3.15
2017-12-14T00:30:50.336Z,3.2
2017-12-14T00:30:54.364Z,3.13
2017-12-14T00:30:58.449Z,3.16
2017-12-14T00:31:02.691Z,3.16
2017-12-14T00:31:06.833Z,3.2
2017-12-14T00:31:10.863Z,3.16
2017-12-14T00:31:15.113Z,3.1
2017-12-14T00:31:19.361Z,3.23
2017-12-14T00:31:23.723Z,3.17
2017-12-14T00:31:27.949Z,3.17
2017-12-14T00:31:32.097Z,3.17
2017-12-14T00:31:36.356Z,3.17
2017-12-14T00:31:40.504Z,3.1
2017-12-14T00:31:44.743Z,3.19
2017-12-14T00:31:49.037Z,3.17
2017-12-14T00:31:53.166Z,3.15
2017-12-14T00:31:57.411Z,3.13
2017-12-14T00:32:01.658Z,3.17
2017-12-14T00:32:05.912Z,3.16
2017-12-14T00:32:10.167Z,3.19
2017-12-14T00:32:14.299Z,3.2
2017-12-14T00:32:18.430Z,3.15
2017-12-14T00:32:22.572Z,3.17
2017-12-14T00:32:26.597Z,3.17
2017-12-14T00:32:30.744Z,3.17
2017-12-14T00:32:35.092Z,3.17
2017-12-14T00:32:39.333Z,3.12
2017-12-14T00:32:43.482Z,3.1
2017-12-14T00:32:47.514Z,3.19
2017-12-14T00:32:51.551Z,3.19
2017-12-14T00:32:55.670Z,3.19
2017-12-14T00:33:00.023Z,3.19
2017-12-14T00:33:04.060Z,3.13
2017-12-14T00:33:08.196Z,3.13
2017-12-14T00:33:12.432Z,3.15
2017-12-14T00:33:16.559Z,3.19
2017-12-14T00:33:20.692Z,3.22
2017-12-14T00:33:24.925Z,3.12
2017-12-14T00:33:28.943Z,3.17
2017-12-14T00:33:33.193Z,3.16
2017-12-14T00:33:37.440Z,3.17
2017-12-14T00:33:41.625Z,3.15
2017-12-14T00:33:45.679Z,3.2
2017-12-14T00:33:50.058Z,3.08
2017-12-14T00:33:54.237Z,3.19
2017-12-14T00:33:58.065Z,3.22
2017-12-14T00:34:02.101Z,3.22
2017-12-14T00:34:06.224Z,3.22
2017-12-14T00:34:10.358Z,3.19
2017-12-14T00:34:14.585Z,3.1
2017-12-14T00:34:18.828Z,3.08
2017-12-14T00:34:22.869Z,3.23
2017-12-14T00:34:26.957Z,3.19
2017-12-14T00:34:31.110Z,3.19
2017-12-14T00:34:35.373Z,3.2
2017-12-14T00:34:39.717Z,3.17
2017-12-14T00:34:43.910Z,3.19
2017-12-14T00:34:48.150Z,3.17
2017-12-14T00:34:52.394Z,3.17
2017-12-14T00:34:56.742Z,3.22
2017-12-14T00:35:00.891Z,3.15
2017-12-14T00:35:05.122Z,3.2
2017-12-14T00:35:09.461Z,3.13
2017-12-14T00:35:13.711Z,3.19
2017-12-14T00:35:17.960Z,3.19
2017-12-14T00:35:22.107Z,3.16
2017-12-14T00:35:26.348Z,3.16
2017-12-14T00:35:30.584Z,3.15
2017-12-14T00:35:34.511Z,3.08
2017-12-14T00:35:38.643Z,3.2
2017-12-14T00:35:42.768Z,3.17
2017-12-14T00:35:46.904Z,3.16
2017-12-14T00:35:51.155Z,3.16
2017-12-14T00:35:55.388Z,3.23
2017-12-14T00:35:59.728Z,3.2
2017-12-14T00:36:04.077Z,3.2
2017-12-14T00:36:08.314Z,3.22
2017-12-14T00:36:12.560Z,3.15
2017-12-14T00:36:16.688Z,3.2
2017-12-14T00:36:20.817Z,3.16
2017-12-14T00:36:25.057Z,3.15
2017-12-14T00:36:28.976Z,3.13
2017-12-14T00:36:33.099Z,3.19
2017-12-14T00:36:37.135Z,3.22
2017-12-14T00:36:41.283Z,3.16
2017-12-14T00:36:45.313Z,3.2
2017-12-14T00:36:49.553Z,3.22
2017-12-14T00:36:53.804Z,3.2
2017-12-14T00:36:58.157Z,3.16
2017-12-14T00:37:02.613Z,3.16
2017-12-14T00:37:06.644Z,3.22
2017-12-14T00:37:10.565Z,3.13
2017-12-14T00:37:14.803Z,3.17
2017-12-14T00:37:18.930Z,3.2
2017-12-14T00:37:23.293Z,3.2
2017-12-14T00:37:27.538Z,3.16
2017-12-14T00:37:31.570Z,3.17
2017-12-14T00:37:35.799Z,3.2
2017-12-14T00:37:40.047Z,3.15
2017-12-14T00:37:44.185Z,3.17
2017-12-14T00:37:48.315Z,3.17
2017-12-14T00:37:52.338Z,3.15
2017-12-14T00:37:56.480Z,3.22
2017-12-14T00:38:00.724Z,3.12
2017-12-14T00:38:05.130Z,3.17
2017-12-14T00:38:09.249Z,3.2
2017-12-14T00:38:13.281Z,3.17
2017-12-14T00:38:17.310Z,3.16
2017-12-14T00:38:21.549Z,3.2
2017-12-14T00:38:25.697Z,3.19
2017-12-14T00:38:30.043Z,3.23
2017-12-14T00:38:34.175Z,3.15
2017-12-14T00:38:38.419Z,3.22
2017-12-14T00:38:42.550Z,3.19
2017-12-14T00:38:46.676Z,3.16
2017-12-14T00:38:50.793Z,3.19
2017-12-14T00:38:54.924Z,3.16
2017-12-14T00:38:59.173Z,3.19
2017-12-14T00:39:03.409Z,3.2
2017-12-14T00:39:07.664Z,3.19
2017-12-14T00:39:11.913Z,3.15
2017-12-14T00:39:16.099Z,3.19
2017-12-14T00:39:20.024Z,3.2
2017-12-14T00:39:24.280Z,3.16
2017-12-14T00:39:28.515Z,3.19
2017-12-14T00:39:32.549Z,3.22
2017-12-14T00:39:36.479Z,3.16
2017-12-14T00:39:40.826Z,3.2
2017-12-14T00:39:45.175Z,3.16
2017-12-14T00:39:49.316Z,3.12
2017-12-14T00:39:53.457Z,3.17
2017-12-14T00:39:57.807Z,3.19
2017-12-14T00:40:02.084Z,3.19
2017-12-14T00:40:06.448Z,3.12
2017-12-14T00:40:10.476Z,3.16
2017-12-14T00:40:14.824Z,3.19
2017-12-14T00:40:18.815Z,3.17
2017-12-14T00:40:23.071Z,3.13
2017-12-14T00:40:27.218Z,3.17
2017-12-14T00:40:31.354Z,3.22
2017-12-14T00:40:35.500Z,3.1
2017-12-14T00:40:39.415Z,3.15
2017-12-14T00:40:43.559Z,3.16
2017-12-14T00:40:47.709Z,3.12
2017-12-14T00:40:51.840Z,3.1
2017-12-14T00:40:55.966Z,3.15
2017-12-14T00:40:59.987Z,3.08
2017-12-14T00:41:04.595Z,3.15
2017-12-14T00:41:08.840Z,3.17
2017-12-14T00:41:12.983Z,3.15
2017-12-14T00:41:16.913Z,3.19
2017-12-14T00:41:21.149Z,3.2
2017-12-14T00:41:25.485Z,3.2
2017-12-14T00:41:29.504Z,3.17
2017-12-14T00:41:33.738Z,3.16
2017-12-14T00:41:37.771Z,3.16
2017-12-14T00:41:42.009Z,3.1
2017-12-14T00:41:46.158Z,3.2
2017-12-14T00:41:50.525Z,3.16
2017-12-14T00:41:54.791Z,3.1
2017-12-14T00:41:59.041Z,3.08
2017-12-14T00:42:03.539Z,3.12
2017-12-14T00:42:07.688Z,3.17
2017-12-14T00:42:11.833Z,3.05
2017-12-14T00:42:16.086Z,3.13
2017-12-14T00:42:20.209Z,3.17
2017-12-14T00:42:24.478Z,3.15
2017-12-14T00:42:28.724Z,3.07
2017-12-14T00:42:32.857Z,3.15
2017-12-14T00:42:36.985Z,3.12
2017-12-14T00:42:41.179Z,3.12
2017-12-14T00:42:45.434Z,3.17
2017-12-14T00:42:49.569Z,2.99
2017-12-14T00:42:53.911Z,3.13
2017-12-14T00:42:58.253Z,3.16
2017-12-14T00:43:02.671Z,3.15
2017-12-14T00:43:07.223Z,3.07
2017-12-14T00:43:11.363Z,3.07
2017-12-14T00:43:15.493Z,3.07
2017-12-14T00:43:19.730Z,3.05
2017-12-14T00:43:23.859Z,3.07
2017-12-14T00:43:28.211Z,3.13
2017-12-14T00:43:32.233Z,3.19
2017-12-14T00:43:36.354Z,3.12
2017-12-14T00:43:40.161Z,3.04
2017-12-14T00:43:44.504Z,3.04
2017-12-14T00:43:48.744Z,3.07
2017-12-14T00:43:52.978Z,3.05
2017-12-14T00:43:57.105Z,3.02
2017-12-14T00:44:01.237Z,3.05
2017-12-14T00:44:05.487Z,3.1
2017-12-14T00:44:09.638Z,3.01
2017-12-14T00:44:13.759Z,3.13
2017-12-14T00:44:17.996Z,3.04
2017-12-14T00:44:22.127Z,3.08
2017-12-14T00:44:26.146Z,3.04
2017-12-14T00:44:30.390Z,3.01
2017-12-14T00:44:34.625Z,3.01
2017-12-14T00:44:38.759Z,3.02
2017-12-14T00:44:42.910Z,3.07
2017-12-14T00:44:47.172Z,3.1
2017-12-14T00:44:51.316Z,3.07
2017-12-14T00:44:55.558Z,3.04
2017-12-14T00:44:59.912Z,2.99
2017-12-14T00:45:04.049Z,3.05
2017-12-14T00:45:08.288Z,3.05
2017-12-14T00:45:12.429Z,3.05
2017-12-14T00:45:16.557Z,2.99
2017-12-14T00:45:20.812Z,3.12
2017-12-14T00:45:24.967Z,3.1
2017-12-14T00:45:29.227Z,3.05
2017-12-14T00:45:33.475Z,3.02
2017-12-14T00:45:37.726Z,3.04
2017-12-14T00:45:41.860Z,3.04
2017-12-14T00:45:45.888Z,3.02
2017-12-14T00:45:50.222Z,3.01
2017-12-14T00:45:54.570Z,3.08
2017-12-14T00:45:58.811Z,3.12
2017-12-14T00:46:03.258Z,2.97
2017-12-14T00:46:07.177Z,3.12
2017-12-14T00:46:11.323Z,3.05
2017-12-14T00:46:15.461Z,3.01
2017-12-14T00:46:19.835Z,3.04
2017-12-14T00:46:24.081Z,2.97
2017-12-14T00:46:28.239Z,3.08
2017-12-14T00:46:32.378Z,3.02
2017-12-14T00:46:36.517Z,3.04
2017-12-14T00:46:40.869Z,3.07
2017-12-14T00:46:44.882Z,3.05
2017-12-14T00:46:49.022Z,3.01
2017-12-14T00:46:53.247Z,3.02
2017-12-14T00:46:57.601Z,2.95
2017-12-14T00:47:01.839Z,2.92
2017-12-14T00:47:05.966Z,3.04
2017-12-14T00:47:10.359Z,2.97
2017-12-14T00:47:14.701Z,2.94
2017-12-14T00:47:18.979Z,3.04
2017-12-14T00:47:23.223Z,3.01
2017-12-14T00:47:27.465Z,2.99
2017-12-14T00:47:31.833Z,3.02
2017-12-14T00:47:35.988Z,3.07
2017-12-14T00:47:40.128Z,3.05
2017-12-14T00:47:44.368Z,3.04
2017-12-14T00:47:48.185Z,3.04
2017-12-14T00:47:52.414Z,3.05
2017-12-14T00:47:56.551Z,3.07
2017-12-14T00:48:00.883Z,3.01
2017-12-14T00:48:05.135Z,3.02
2017-12-14T00:48:09.267Z,2.98
2017-12-14T00:48:13.079Z,3.01
2017-12-14T00:48:17.300Z,2.94
2017-12-14T00:48:21.428Z,2.97
2017-12-14T00:48:25.361Z,2.98
2017-12-14T00:48:29.498Z,2.95
2017-12-14T00:48:33.846Z,2.98
2017-12-14T00:48:37.979Z,2.95
2017-12-14T00:48:42.120Z,3.04
2017-12-14T00:48:46.140Z,3.05
2017-12-14T00:48:50.493Z,2.92
2017-12-14T00:48:54.524Z,3.01
2017-12-14T00:48:58.869Z,2.98
2017-12-14T00:49:03.253Z,2.98
2017-12-14T00:49:07.616Z,2.94
2017-12-14T00:49:11.529Z,3.01
2017-12-14T00:49:15.871Z,2.98
2017-12-14T00:49:20.002Z,3.01
2017-12-14T00:49:24.128Z,2.98
2017-12-14T00:49:28.364Z,3.08
2017-12-14T00:49:32.295Z,3.07
2017-12-14T00:49:36.543Z,3.01
2017-12-14T00:49:40.707Z,3.04
2017-12-14T00:49:44.846Z,3.04
2017-12-14T00:49:48.876Z,2.94
2017-12-14T00:49:53.119Z,2.99
2017-12-14T00:49:57.263Z,3.05
2017-12-14T00:50:01.400Z,3.01
2017-12-14T00:50:05.959Z,3.01
2017-12-14T00:50:10.183Z,3.08
2017-12-14T00:50:14.332Z,2.97
2017-12-14T00:50:18.457Z,2.94
2017-12-14T00:50:22.590Z,3.01
2017-12-14T00:50:26.943Z,2.98
2017-12-14T00:50:31.090Z,3.04
2017-12-14T00:50:35.443Z,3.05
2017-12-14T00:50:39.797Z,3.01
2017-12-14T00:50:43.939Z,2.98
2017-12-14T00:50:48.369Z,2.94
2017-12-14T00:50:52.402Z,2.98
2017-12-14T00:50:56.844Z,2.98
2017-12-14T00:51:01.069Z,2.94
2017-12-14T00:51:05.355Z,2.92
2017-12-14T00:51:09.493Z,2.98
2017-12-14T00:51:13.743Z,3.05
2017-12-14T00:51:17.981Z,2.95
2017-12-14T00:51:22.131Z,3.04
2017-12-14T00:51:26.264Z,2.99
2017-12-14T00:51:30.415Z,2.97
2017-12-14T00:51:34.813Z,3.04
2017-12-14T00:51:38.842Z,2.97
2017-12-14T00:51:42.981Z,2.98
2017-12-14T00:51:47.113Z,2.98
2017-12-14T00:51:51.245Z,2.95
2017-12-14T00:51:55.498Z,2.99
2017-12-14T00:51:59.433Z,3.02
2017-12-14T00:52:03.472Z,2.98
2017-12-14T00:52:07.824Z,3.04
2017-12-14T00:52:11.967Z,2.95
2017-12-14T00:52:16.127Z,2.95
2017-12-14T00:52:20.267Z,2.98
2017-12-14T00:52:24.320Z,2.94
2017-12-14T00:52:28.670Z,2.97
2017-12-14T00:52:32.919Z,2.98
2017-12-14T00:52:37.158Z,2.98
2017-12-14T00:52:41.403Z,2.92
2017-12-14T00:52:45.644Z,2.97
2017-12-14T00:52:49.873Z,2.98
2017-12-14T00:52:53.896Z,2.99
2017-12-14T00:52:58.038Z,2.95
2017-12-14T00:53:01.962Z,2.94
2017-12-14T00:53:06.215Z,2.95
2017-12-14T00:53:10.351Z,2.94
2017-12-14T00:53:14.268Z,2.95
2017-12-14T00:53:18.628Z,2.98
2017-12-14T00:53:22.860Z,2.98
2017-12-14T00:53:27.088Z,2.98
2017-12-14T00:53:31.332Z,2.94
2017-12-14T00:53:35.568Z,2.97
2017-12-14T00:53:39.925Z,2.97
2017-12-14T00:53:43.947Z,3.04
2017-12-14T00:53:48.295Z,2.97
2017-12-14T00:53:52.537Z,3.02
2017-12-14T00:53:56.777Z,2.94
2017-12-14T00:54:01.028Z,2.98
2017-12-14T00:54:05.525Z,3.01
2017-12-14T00:54:09.862Z,2.94
2017-12-14T00:54:13.791Z,3.01
2017-12-14T00:54:18.135Z,2.95
2017-12-14T00:54:22.268Z,2.99
2017-12-14T00:54:26.297Z,3.08
2017-12-14T00:54:30.659Z,3.02
2017-12-14T00:54:34.909Z,3.02
2017-12-14T00:54:39.273Z,3.07
2017-12-14T00:54:43.630Z,3.08
2017-12-14T00:54:47.985Z,3.02
2017-12-14T00:54:51.911Z,3.07
2017-12-14T00:54:56.261Z,2.98
2017-12-14T00:55:00.606Z,3.07
2017-12-14T00:55:04.957Z,3.08
2017-12-14T00:55:09.078Z,3.05
2017-12-14T00:55:13.110Z,3.08
2017-12-14T00:55:17.459Z,2.99
2017-12-14T00:55:21.706Z,3.07
2017-12-14T00:55:25.743Z,3.1
2017-12-14T00:55:30.102Z,3.13
2017-12-14T00:55:34.241Z,3.12
2017-12-14T00:55:38.386Z,3.07
2017-12-14T00:55:42.728Z,3.04
2017-12-14T00:55:47.069Z,3.02
2017-12-14T00:55:51.322Z,3.04
2017-12-14T00:55:55.737Z,2.99
2017-12-14T00:55:59.969Z,3.04
2017-12-14T00:56:04.212Z,3.01